sensor_id;sensor_type;location;lat;lon;timestamp;pressure;altitude;pressure_sealevel;temperature;humidity
49102;BME280;34913;47.520;19.186;2023-11-21T00:00:53;99425.28;;;5.63;100.00
49102;BME280;34913;47.520;19.186;2023-11-21T00:03:19;99411.72;;;5.56;100.00
49102;BME280;34913;47.520;19.186;2023-11-21T00:05:44;99422.34;;;5.55;100.00
49102;BME280;34913;47.520;19.186;2023-11-21T00:08:10;99421.28;;;5.57;100.00
49102;BME280;34913;47.520;19.186;2023-11-21T00:10:36;99418.03;;;5.54;100.00
49102;BME280;34913;47.520;19.186;2023-11-21T00:13:04;99418.03;;;5.54;100.00
49102;BME280;34913;47.520;19.186;2023-11-21T00:15:29;99417.94;;;5.55;100.00
49102;BME280;34913;47.520;19.186;2023-11-21T00:17:55;99413.91;;;5.63;100.00
49102;BME280;34913;47.520;19.186;2023-11-21T00:20:20;99416.13;;;5.56;100.00
49102;BME280;34913;47.520;19.186;2023-11-21T00:22:47;99412.56;;;5.44;100.00
49102;BME280;34913;47.520;19.186;2023-11-21T00:25:12;99413.56;;;5.30;100.00
49102;BME280;34913;47.520;19.186;2023-11-21T00:27:41;99417.88;;;5.19;100.00
49102;BME280;34913;47.520;19.186;2023-11-21T00:30:07;99418.28;;;5.13;100.00
49102;BME280;34913;47.520;19.186;2023-11-21T00:32:35;99416.84;;;5.09;100.00
49102;BME280;34913;47.520;19.186;2023-11-21T00:35:01;99424.19;;;5.03;100.00
49102;BME280;34913;47.520;19.186;2023-11-21T00:37:27;99434.28;;;5.10;100.00
49102;BME280;34913;47.520;19.186;2023-11-21T00:39:52;99423.78;;;5.10;100.00
49102;BME280;34913;47.520;19.186;2023-11-21T00:42:17;99431.56;;;5.11;100.00
49102;BME280;34913;47.520;19.186;2023-11-21T00:44:43;99441.03;;;5.01;100.00
49102;BME280;34913;47.520;19.186;2023-11-21T00:47:08;99445.44;;;4.88;100.00
49102;BME280;34913;47.520;19.186;2023-11-21T00:49:34;99449.03;;;4.87;100.00
49102;BME280;34913;47.520;19.186;2023-11-21T00:51:59;99438.50;;;4.87;100.00
49102;BME280;34913;47.520;19.186;2023-11-21T00:54:26;99436.94;;;4.84;100.00
49102;BME280;34913;47.520;19.186;2023-11-21T00:56:52;99441.75;;;4.78;100.00
49102;BME280;34913;47.520;19.186;2023-11-21T00:59:17;99437.97;;;4.82;100.00
49102;BME280;34913;47.520;19.186;2023-11-21T01:01:42;99436.72;;;4.74;100.00
49102;BME280;34913;47.520;19.186;2023-11-21T01:04:08;99431.56;;;4.86;100.00
49102;BME280;34913;47.520;19.186;2023-11-21T01:06:33;99447.78;;;4.92;100.00
49102;BME280;34913;47.520;19.186;2023-11-21T01:08:59;99435.78;;;4.75;100.00
49102;BME280;34913;47.520;19.186;2023-11-21T01:11:24;99436.72;;;4.74;100.00
49102;BME280;34913;47.520;19.186;2023-11-21T01:13:49;99428.84;;;4.74;100.00
49102;BME280;34913;47.520;19.186;2023-11-21T01:16:15;99424.41;;;4.88;100.00
49102;BME280;34913;47.520;19.186;2023-11-21T01:18:40;99433.47;;;4.84;100.00
49102;BME280;34913;47.520;19.186;2023-11-21T01:21:06;99428.81;;;4.87;100.00
49102;BME280;34913;47.520;19.186;2023-11-21T01:23:32;99424.81;;;4.82;100.00
49102;BME280;34913;47.520;19.186;2023-11-21T01:25:58;99428.31;;;4.82;100.00
49102;BME280;34913;47.520;19.186;2023-11-21T01:28:23;99415.88;;;4.71;100.00
49102;BME280;34913;47.520;19.186;2023-11-21T01:30:49;99419.44;;;4.58;100.00
49102;BME280;34913;47.520;19.186;2023-11-21T01:33:14;99410.50;;;4.60;100.00
49102;BME280;34913;47.520;19.186;2023-11-21T01:35:41;99409.47;;;4.63;100.00
49102;BME280;34913;47.520;19.186;2023-11-21T01:38:07;99401.13;;;4.56;100.00
49102;BME280;34913;47.520;19.186;2023-11-21T01:40:35;99409.88;;;4.57;100.00
49102;BME280;34913;47.520;19.186;2023-11-21T01:43:01;99404.53;;;4.58;100.00
49102;BME280;34913;47.520;19.186;2023-11-21T01:45:29;99402.53;;;4.62;100.00
49102;BME280;34913;47.520;19.186;2023-11-21T01:47:59;99408.72;;;4.61;100.00
49102;BME280;34913;47.520;19.186;2023-11-21T01:50:25;99406.53;;;4.67;100.00
49102;BME280;34913;47.520;19.186;2023-11-21T01:52:50;99416.41;;;4.64;100.00
49102;BME280;34913;47.520;19.186;2023-11-21T01:55:17;99415.66;;;4.62;100.00
49102;BME280;34913;47.520;19.186;2023-11-21T01:57:46;99399.66;;;4.65;100.00
49102;BME280;34913;47.520;19.186;2023-11-21T02:00:13;99406.72;;;4.64;100.00
49102;BME280;34913;47.520;19.186;2023-11-21T02:02:43;99402.81;;;4.57;100.00
49102;BME280;34913;47.520;19.186;2023-11-21T02:05:13;99389.16;;;4.52;100.00
49102;BME280;34913;47.520;19.186;2023-11-21T02:07:40;99386.31;;;4.55;100.00
49102;BME280;34913;47.520;19.186;2023-11-21T02:10:07;99389.50;;;4.60;100.00
49102;BME280;34913;47.520;19.186;2023-11-21T02:12:33;99384.41;;;4.57;100.00
49102;BME280;34913;47.520;19.186;2023-11-21T02:15:03;99390.44;;;4.59;100.00
49102;BME280;34913;47.520;19.186;2023-11-21T02:17:36;99390.75;;;4.67;100.00
49102;BME280;34913;47.520;19.186;2023-11-21T02:20:02;99381.38;;;4.63;100.00
49102;BME280;34913;47.520;19.186;2023-11-21T02:22:30;99386.44;;;4.54;100.00
49102;BME280;34913;47.520;19.186;2023-11-21T02:24:57;99396.28;;;4.50;100.00
49102;BME280;34913;47.520;19.186;2023-11-21T02:27:23;99386.00;;;4.47;100.00
49102;BME280;34913;47.520;19.186;2023-11-21T02:29:49;99384.34;;;4.59;100.00
49102;BME280;34913;47.520;19.186;2023-11-21T02:32:15;99380.56;;;4.75;100.00
49102;BME280;34913;47.520;19.186;2023-11-21T02:34:42;99384.03;;;4.76;100.00
49102;BME280;34913;47.520;19.186;2023-11-21T02:37:08;99378.13;;;4.72;100.00
49102;BME280;34913;47.520;19.186;2023-11-21T02:39:34;99376.34;;;4.73;100.00
49102;BME280;34913;47.520;19.186;2023-11-21T02:41:59;99375.59;;;4.71;100.00
49102;BME280;34913;47.520;19.186;2023-11-21T02:44:25;99382.44;;;4.61;100.00
49102;BME280;34913;47.520;19.186;2023-11-21T02:46:51;99378.88;;;4.62;100.00
49102;BME280;34913;47.520;19.186;2023-11-21T02:49:16;99376.13;;;4.63;100.00
49102;BME280;34913;47.520;19.186;2023-11-21T02:51:42;99368.13;;;4.65;100.00
49102;BME280;34913;47.520;19.186;2023-11-21T02:54:08;99363.31;;;4.59;100.00
49102;BME280;34913;47.520;19.186;2023-11-21T02:56:33;99367.28;;;4.39;100.00
49102;BME280;34913;47.520;19.186;2023-11-21T02:58:59;99371.44;;;4.16;100.00
49102;BME280;34913;47.520;19.186;2023-11-21T03:01:25;99359.88;;;4.18;100.00
49102;BME280;34913;47.520;19.186;2023-11-21T03:03:51;99367.91;;;4.30;100.00
49102;BME280;34913;47.520;19.186;2023-11-21T03:06:20;99367.16;;;4.28;100.00
49102;BME280;34913;47.520;19.186;2023-11-21T03:08:46;99368.53;;;4.33;100.00
49102;BME280;34913;47.520;19.186;2023-11-21T03:11:12;99360.63;;;4.33;100.00
49102;BME280;34913;47.520;19.186;2023-11-21T03:13:41;99349.94;;;4.36;100.00
49102;BME280;34913;47.520;19.186;2023-11-21T03:16:11;99352.91;;;4.44;100.00
49102;BME280;34913;47.520;19.186;2023-11-21T03:18:40;99357.81;;;4.49;100.00
49102;BME280;34913;47.520;19.186;2023-11-21T03:21:06;99345.53;;;4.49;100.00
49102;BME280;34913;47.520;19.186;2023-11-21T03:23:34;99333.44;;;4.47;100.00
49102;BME280;34913;47.520;19.186;2023-11-21T03:26:00;99341.75;;;4.54;100.00
49102;BME280;34913;47.520;19.186;2023-11-21T03:28:26;99335.84;;;4.37;100.00
49102;BME280;34913;47.520;19.186;2023-11-21T03:30:55;99336.47;;;4.41;100.00
49102;BME280;34913;47.520;19.186;2023-11-21T03:33:21;99336.28;;;4.44;100.00
49102;BME280;34913;47.520;19.186;2023-11-21T03:35:47;99327.13;;;4.49;100.00
49102;BME280;34913;47.520;19.186;2023-11-21T03:38:13;99323.47;;;4.52;100.00
49102;BME280;34913;47.520;19.186;2023-11-21T03:40:38;99331.34;;;4.52;100.00
49102;BME280;34913;47.520;19.186;2023-11-21T03:43:05;99328.09;;;4.61;100.00
49102;BME280;34913;47.520;19.186;2023-11-21T03:45:31;99325.88;;;4.55;100.00
49102;BME280;34913;47.520;19.186;2023-11-21T03:47:57;99317.78;;;4.45;100.00
49102;BME280;34913;47.520;19.186;2023-11-21T03:50:22;99316.09;;;4.44;100.00
49102;BME280;34913;47.520;19.186;2023-11-21T03:52:48;99306.22;;;4.48;100.00
49102;BME280;34913;47.520;19.186;2023-11-21T03:55:13;99295.69;;;4.48;100.00
49102;BME280;34913;47.520;19.186;2023-11-21T03:57:40;99307.81;;;4.51;100.00
49102;BME280;34913;47.520;19.186;2023-11-21T04:00:07;99302.03;;;4.45;100.00
49102;BME280;34913;47.520;19.186;2023-11-21T04:02:34;99316.84;;;4.46;100.00
49102;BME280;34913;47.520;19.186;2023-11-21T04:05:00;99313.25;;;4.47;100.00
49102;BME280;34913;47.520;19.186;2023-11-21T04:07:25;99320.72;;;4.54;100.00
49102;BME280;34913;47.520;19.186;2023-11-21T04:09:51;99324.91;;;4.56;100.00
49102;BME280;34913;47.520;19.186;2023-11-21T04:12:16;99328.81;;;4.38;100.00
49102;BME280;34913;47.520;19.186;2023-11-21T04:14:42;99335.44;;;4.43;100.00
49102;BME280;34913;47.520;19.186;2023-11-21T04:17:07;99328.50;;;4.30;100.00
49102;BME280;34913;47.520;19.186;2023-11-21T04:19:33;99346.47;;;4.36;100.00
49102;BME280;34913;47.520;19.186;2023-11-21T04:21:58;99350.56;;;4.40;100.00
49102;BME280;34913;47.520;19.186;2023-11-21T04:24:23;99356.78;;;4.39;100.00
49102;BME280;34913;47.520;19.186;2023-11-21T04:26:49;99361.19;;;4.38;100.00
49102;BME280;34913;47.520;19.186;2023-11-21T04:29:14;99361.59;;;4.32;100.00
49102;BME280;34913;47.520;19.186;2023-11-21T04:31:40;99354.03;;;4.28;100.00
49102;BME280;34913;47.520;19.186;2023-11-21T04:34:06;99352.69;;;4.35;100.00
49102;BME280;34913;47.520;19.186;2023-11-21T04:36:32;99340.47;;;4.34;100.00
49102;BME280;34913;47.520;19.186;2023-11-21T04:38:57;99344.16;;;4.44;100.00
49102;BME280;34913;47.520;19.186;2023-11-21T04:41:23;99346.56;;;4.47;100.00
49102;BME280;34913;47.520;19.186;2023-11-21T04:43:48;99349.00;;;4.50;100.00
49102;BME280;34913;47.520;19.186;2023-11-21T04:46:14;99353.94;;;4.55;100.00
49102;BME280;34913;47.520;19.186;2023-11-21T04:48:40;99349.94;;;4.62;100.00
49102;BME280;34913;47.520;19.186;2023-11-21T04:51:05;99354.03;;;4.66;100.00
49102;BME280;34913;47.520;19.186;2023-11-21T04:53:31;99359.84;;;4.71;100.00
49102;BME280;34913;47.520;19.186;2023-11-21T04:55:56;99368.56;;;4.71;100.00
49102;BME280;34913;47.520;19.186;2023-11-21T04:58:21;99368.44;;;4.73;100.00
49102;BME280;34913;47.520;19.186;2023-11-21T05:00:47;99378.22;;;4.71;100.00
49102;BME280;34913;47.520;19.186;2023-11-21T05:03:13;99373.63;;;4.74;100.00
49102;BME280;34913;47.520;19.186;2023-11-21T05:05:38;99378.66;;;4.78;100.00
49102;BME280;34913;47.520;19.186;2023-11-21T05:08:03;99379.72;;;4.75;100.00
49102;BME280;34913;47.520;19.186;2023-11-21T05:10:29;99379.50;;;4.78;100.00
49102;BME280;34913;47.520;19.186;2023-11-21T05:12:55;99376.56;;;4.70;100.00
49102;BME280;34913;47.520;19.186;2023-11-21T05:15:21;99388.03;;;4.69;100.00
49102;BME280;34913;47.520;19.186;2023-11-21T05:17:47;99386.00;;;4.72;100.00
49102;BME280;34913;47.520;19.186;2023-11-21T05:20:16;99382.53;;;4.72;100.00
49102;BME280;34913;47.520;19.186;2023-11-21T05:22:49;99396.31;;;4.88;100.00
49102;BME280;34913;47.520;19.186;2023-11-21T05:25:14;99389.38;;;5.00;100.00
49102;BME280;34913;47.520;19.186;2023-11-21T05:27:40;99389.16;;;5.03;100.00
49102;BME280;34913;47.520;19.186;2023-11-21T05:30:06;99393.16;;;5.09;100.00
49102;BME280;34913;47.520;19.186;2023-11-21T05:32:33;99385.69;;;5.15;100.00
49102;BME280;34913;47.520;19.186;2023-11-21T05:34:59;99382.72;;;5.20;100.00
49102;BME280;34913;47.520;19.186;2023-11-21T05:37:24;99368.53;;;5.22;100.00
49102;BME280;34913;47.520;19.186;2023-11-21T05:39:53;99372.94;;;5.22;100.00
49102;BME280;34913;47.520;19.186;2023-11-21T05:42:21;99370.53;;;5.19;100.00
49102;BME280;34913;47.520;19.186;2023-11-21T05:44:47;99365.69;;;5.13;100.00
49102;BME280;34913;47.520;19.186;2023-11-21T05:47:13;99372.13;;;5.21;100.00
49102;BME280;34913;47.520;19.186;2023-11-21T05:49:39;99370.53;;;5.19;100.00
49102;BME280;34913;47.520;19.186;2023-11-21T05:52:04;99379.59;;;5.15;100.00
49102;BME280;34913;47.520;19.186;2023-11-21T05:54:30;99381.06;;;5.06;100.00
49102;BME280;34913;47.520;19.186;2023-11-21T05:56:56;99377.81;;;5.02;100.00
49102;BME280;34913;47.520;19.186;2023-11-21T05:59:22;99387.25;;;5.05;100.00
49102;BME280;34913;47.520;19.186;2023-11-21T06:01:47;99383.78;;;5.04;100.00
49102;BME280;34913;47.520;19.186;2023-11-21T06:04:13;99389.69;;;5.08;100.00
49102;BME280;34913;47.520;19.186;2023-11-21T06:06:38;99389.69;;;4.95;100.00
49102;BME280;34913;47.520;19.186;2023-11-21T06:09:04;99395.91;;;4.94;100.00
49102;BME280;34913;47.520;19.186;2023-11-21T06:11:31;99407.78;;;5.00;100.00
49102;BME280;34913;47.520;19.186;2023-11-21T06:13:57;99422.09;;;5.09;100.00
49102;BME280;34913;47.520;19.186;2023-11-21T06:16:23;99436.28;;;5.19;100.00
49102;BME280;34913;47.520;19.186;2023-11-21T06:18:49;99435.44;;;5.18;100.00
49102;BME280;34913;47.520;19.186;2023-11-21T06:21:14;99432.63;;;5.21;100.00
49102;BME280;34913;47.520;19.186;2023-11-21T06:23:42;99428.69;;;5.27;100.00
49102;BME280;34913;47.520;19.186;2023-11-21T06:26:07;99438.91;;;5.31;100.00
49102;BME280;34913;47.520;19.186;2023-11-21T06:28:34;99443.75;;;5.38;100.00
49102;BME280;34913;47.520;19.186;2023-11-21T06:31:01;99439.41;;;5.49;100.00
49102;BME280;34913;47.520;19.186;2023-11-21T06:33:31;99436.59;;;5.40;100.00
49102;BME280;34913;47.520;19.186;2023-11-21T06:35:56;99438.38;;;5.39;100.00
49102;BME280;34913;47.520;19.186;2023-11-21T06:38:22;99452.88;;;5.45;100.00
49102;BME280;34913;47.520;19.186;2023-11-21T06:40:47;99456.38;;;5.45;100.00
49102;BME280;34913;47.520;19.186;2023-11-21T06:43:13;99465.72;;;5.49;100.00
49102;BME280;34913;47.520;19.186;2023-11-21T06:45:39;99458.78;;;5.48;100.00
49102;BME280;34913;47.520;19.186;2023-11-21T06:48:05;99473.41;;;5.52;100.00
49102;BME280;34913;47.520;19.186;2023-11-21T06:50:30;99464.59;;;5.53;100.00
49102;BME280;34913;47.520;19.186;2023-11-21T06:52:56;99476.63;;;5.69;100.00
49102;BME280;34913;47.520;19.186;2023-11-21T06:55:21;99478.22;;;5.71;100.00
49102;BME280;34913;47.520;19.186;2023-11-21T06:57:47;99471.91;;;5.74;100.00
49102;BME280;34913;47.520;19.186;2023-11-21T07:00:15;99463.47;;;5.69;100.00
49102;BME280;34913;47.520;19.186;2023-11-21T07:02:43;99479.25;;;5.69;100.00
49102;BME280;34913;47.520;19.186;2023-11-21T07:05:09;99473.16;;;5.68;100.00
49102;BME280;34913;47.520;19.186;2023-11-21T07:07:35;99479.59;;;5.64;100.00
49102;BME280;34913;47.520;19.186;2023-11-21T07:10:02;99489.63;;;5.59;100.00
49102;BME280;34913;47.520;19.186;2023-11-21T07:12:30;99481.00;;;5.57;100.00
49102;BME280;34913;47.520;19.186;2023-11-21T07:14:56;99490.97;;;5.65;100.00
49102;BME280;34913;47.520;19.186;2023-11-21T07:17:22;99495.47;;;5.75;100.00
49102;BME280;34913;47.520;19.186;2023-11-21T07:19:48;99496.13;;;5.79;100.00
49102;BME280;34913;47.520;19.186;2023-11-21T07:22:15;99490.50;;;5.83;100.00
49102;BME280;34913;47.520;19.186;2023-11-21T07:24:48;99485.25;;;5.83;100.00
49102;BME280;34913;47.520;19.186;2023-11-21T07:27:13;99481.56;;;5.86;100.00
49102;BME280;34913;47.520;19.186;2023-11-21T07:29:39;99496.03;;;5.93;100.00
49102;BME280;34913;47.520;19.186;2023-11-21T07:32:05;99478.81;;;5.87;100.00
49102;BME280;34913;47.520;19.186;2023-11-21T07:34:31;99491.25;;;5.98;100.00
49102;BME280;34913;47.520;19.186;2023-11-21T07:36:56;99478.59;;;6.03;100.00
49102;BME280;34913;47.520;19.186;2023-11-21T07:39:22;99477.75;;;6.03;100.00
49102;BME280;34913;47.520;19.186;2023-11-21T07:41:47;99484.25;;;6.10;100.00
49102;BME280;34913;47.520;19.186;2023-11-21T07:44:18;99476.75;;;6.17;100.00
49102;BME280;34913;47.520;19.186;2023-11-21T07:46:45;99486.22;;;6.19;100.00
49102;BME280;34913;47.520;19.186;2023-11-21T07:49:11;99487.78;;;6.22;100.00
49102;BME280;34913;47.520;19.186;2023-11-21T07:51:36;99485.56;;;6.28;100.00
49102;BME280;34913;47.520;19.186;2023-11-21T07:54:02;99485.56;;;6.28;100.00
49102;BME280;34913;47.520;19.186;2023-11-21T07:56:27;99479.31;;;6.29;100.00
49102;BME280;34913;47.520;19.186;2023-11-21T07:58:52;99480.03;;;6.31;100.00
49102;BME280;34913;47.520;19.186;2023-11-21T08:01:18;99486.66;;;6.37;100.00
49102;BME280;34913;47.520;19.186;2023-11-21T08:03:44;99478.31;;;6.43;100.00
49102;BME280;34913;47.520;19.186;2023-11-21T08:06:09;99475.25;;;6.49;100.00
49102;BME280;34913;47.520;19.186;2023-11-21T08:08:35;99470.84;;;6.61;100.00
49102;BME280;34913;47.520;19.186;2023-11-21T08:11:00;99471.09;;;6.69;100.00
49102;BME280;34913;47.520;19.186;2023-11-21T08:13:28;99477.03;;;6.84;100.00
49102;BME280;34913;47.520;19.186;2023-11-21T08:15:54;99471.88;;;6.93;100.00
49102;BME280;34913;47.520;19.186;2023-11-21T08:18:19;99472.88;;;7.04;100.00
49102;BME280;34913;47.520;19.186;2023-11-21T08:20:45;99477.91;;;7.07;100.00
49102;BME280;34913;47.520;19.186;2023-11-21T08:23:16;99480.56;;;7.07;100.00
49102;BME280;34913;47.520;19.186;2023-11-21T08:25:45;99479.09;;;7.03;100.00
49102;BME280;34913;47.520;19.186;2023-11-21T08:28:11;99479.47;;;6.98;100.00
49102;BME280;34913;47.520;19.186;2023-11-21T08:30:37;99472.47;;;6.86;100.00
49102;BME280;34913;47.520;19.186;2023-11-21T08:33:02;99470.34;;;6.91;100.00
49102;BME280;34913;47.520;19.186;2023-11-21T08:35:29;99469.75;;;6.98;100.00
49102;BME280;34913;47.520;19.186;2023-11-21T08:37:55;99462.69;;;7.10;100.00
49102;BME280;34913;47.520;19.186;2023-11-21T08:40:21;99465.69;;;7.17;100.00
49102;BME280;34913;47.520;19.186;2023-11-21T08:42:49;99471.34;;;7.23;100.00
49102;BME280;34913;47.520;19.186;2023-11-21T08:45:17;99459.44;;;7.18;100.00
49102;BME280;34913;47.520;19.186;2023-11-21T08:47:43;99474.47;;;7.28;100.00
49102;BME280;34913;47.520;19.186;2023-11-21T08:50:09;99470.28;;;7.37;100.00
49102;BME280;34913;47.520;19.186;2023-11-21T08:52:37;99471.84;;;7.40;100.00
49102;BME280;34913;47.520;19.186;2023-11-21T08:55:04;99466.44;;;7.41;100.00
49102;BME280;34913;47.520;19.186;2023-11-21T08:57:36;99469.56;;;7.46;100.00
49102;BME280;34913;47.520;19.186;2023-11-21T09:00:09;99464.03;;;7.49;100.00
49102;BME280;34913;47.520;19.186;2023-11-21T09:02:39;99462.84;;;7.53;100.00
49102;BME280;34913;47.520;19.186;2023-11-21T09:05:08;99462.59;;;7.56;100.00
49102;BME280;34913;47.520;19.186;2023-11-21T09:07:34;99469.31;;;7.61;100.00
49102;BME280;34913;47.520;19.186;2023-11-21T09:10:01;99475.31;;;7.63;100.00
49102;BME280;34913;47.520;19.186;2023-11-21T09:12:26;99466.91;;;7.57;100.00
49102;BME280;34913;47.520;19.186;2023-11-21T09:14:52;99471.00;;;7.62;100.00
49102;BME280;34913;47.520;19.186;2023-11-21T09:17:17;99460.19;;;7.65;100.00
49102;BME280;34913;47.520;19.186;2023-11-21T09:19:43;99463.66;;;7.65;100.00
49102;BME280;34913;47.520;19.186;2023-11-21T09:22:15;99460.94;;;7.67;100.00
49102;BME280;34913;47.520;19.186;2023-11-21T09:24:41;99454.81;;;7.66;100.00
49102;BME280;34913;47.520;19.186;2023-11-21T09:27:07;99457.31;;;7.68;100.00
49102;BME280;34913;47.520;19.186;2023-11-21T09:29:33;99445.31;;;7.75;100.00
49102;BME280;34913;47.520;19.186;2023-11-21T09:31:58;99446.25;;;7.85;100.00
49102;BME280;34913;47.520;19.186;2023-11-21T09:34:27;99441.31;;;7.92;100.00
49102;BME280;34913;47.520;19.186;2023-11-21T09:36:52;99449.69;;;7.97;100.00
49102;BME280;34913;47.520;19.186;2023-11-21T09:39:19;99449.19;;;8.03;100.00
49102;BME280;34913;47.520;19.186;2023-11-21T09:41:51;99441.13;;;8.04;100.00
49102;BME280;34913;47.520;19.186;2023-11-21T09:44:21;99438.13;;;8.09;100.00
49102;BME280;34913;47.520;19.186;2023-11-21T09:46:48;99435.50;;;8.09;100.00
49102;BME280;34913;47.520;19.186;2023-11-21T09:49:22;99434.41;;;8.11;100.00
49102;BME280;34913;47.520;19.186;2023-11-21T09:51:52;99426.13;;;8.05;100.00
49102;BME280;34913;47.520;19.186;2023-11-21T09:54:20;99426.09;;;8.16;100.00
49102;BME280;34913;47.520;19.186;2023-11-21T09:56:46;99426.44;;;8.23;100.00
49102;BME280;34913;47.520;19.186;2023-11-21T09:59:14;99423.19;;;8.19;100.00
49102;BME280;34913;47.520;19.186;2023-11-21T10:01:41;99436.06;;;8.12;100.00
49102;BME280;34913;47.520;19.186;2023-11-21T10:04:08;99431.53;;;8.15;100.00
49102;BME280;34913;47.520;19.186;2023-11-21T10:06:40;99438.56;;;8.25;100.00
49102;BME280;34913;47.520;19.186;2023-11-21T10:09:12;99432.78;;;8.31;100.00
49102;BME280;34913;47.520;19.186;2023-11-21T10:11:42;99425.09;;;8.39;100.00
49102;BME280;34913;47.520;19.186;2023-11-21T10:14:12;99423.84;;;8.44;100.00
49102;BME280;34913;47.520;19.186;2023-11-21T10:16:40;99425.84;;;8.51;100.00
49102;BME280;34913;47.520;19.186;2023-11-21T10:19:06;99418.53;;;8.55;100.00
49102;BME280;34913;47.520;19.186;2023-11-21T10:21:34;99423.94;;;8.53;100.00
49102;BME280;34913;47.520;19.186;2023-11-21T10:24:00;99412.78;;;8.50;100.00
49102;BME280;34913;47.520;19.186;2023-11-21T10:26:27;99417.22;;;8.49;100.00
49102;BME280;34913;47.520;19.186;2023-11-21T10:29:00;99412.69;;;8.40;100.00
49102;BME280;34913;47.520;19.186;2023-11-21T10:31:33;99410.19;;;8.38;100.00
49102;BME280;34913;47.520;19.186;2023-11-21T10:34:15;99402.56;;;8.45;100.00
49102;BME280;34913;47.520;19.186;2023-11-21T10:36:40;99403.75;;;8.73;100.00
49102;BME280;34913;47.520;19.186;2023-11-21T10:39:06;99405.09;;;8.67;100.00
49102;BME280;34913;47.520;19.186;2023-11-21T10:41:32;99405.00;;;8.69;100.00
49102;BME280;34913;47.520;19.186;2023-11-21T10:43:57;99410.84;;;8.73;100.00
49102;BME280;34913;47.520;19.186;2023-11-21T10:46:23;99397.63;;;8.73;100.00
49102;BME280;34913;47.520;19.186;2023-11-21T10:48:54;99398.31;;;8.75;100.00
49102;BME280;34913;47.520;19.186;2023-11-21T10:51:22;99402.53;;;8.77;100.00
49102;BME280;34913;47.520;19.186;2023-11-21T10:53:51;99407.88;;;8.87;100.00
49102;BME280;34913;47.520;19.186;2023-11-21T10:56:18;99406.38;;;8.94;99.01
49102;BME280;34913;47.520;19.186;2023-11-21T10:58:45;99399.72;;;9.00;96.90
49102;BME280;34913;47.520;19.186;2023-11-21T11:01:11;99405.31;;;9.06;96.06
49102;BME280;34913;47.520;19.186;2023-11-21T11:03:39;99396.31;;;9.09;95.42
49102;BME280;34913;47.520;19.186;2023-11-21T11:06:07;99388.38;;;9.09;95.19
49102;BME280;34913;47.520;19.186;2023-11-21T11:08:40;99386.97;;;9.14;94.76
49102;BME280;34913;47.520;19.186;2023-11-21T11:11:07;99395.06;;;9.13;94.93
49102;BME280;34913;47.520;19.186;2023-11-21T11:13:33;99400.66;;;9.19;95.15
49102;BME280;34913;47.520;19.186;2023-11-21T11:16:00;99401.50;;;9.20;94.34
49102;BME280;34913;47.520;19.186;2023-11-21T11:18:30;99396.66;;;9.25;95.41
49102;BME280;34913;47.520;19.186;2023-11-21T11:21:20;99397.88;;;9.21;95.79
49102;BME280;34913;47.520;19.186;2023-11-21T11:24:11;99394.13;;;9.23;95.51
49102;BME280;34913;47.520;19.186;2023-11-21T11:26:58;99393.56;;;9.20;95.11
49102;BME280;34913;47.520;19.186;2023-11-21T11:29:35;99386.44;;;9.20;95.53
49102;BME280;34913;47.520;19.186;2023-11-21T11:34:56;99387.38;;;9.10;96.71
49102;BME280;34913;47.520;19.186;2023-11-21T11:37:24;99378.78;;;9.17;95.40
49102;BME280;34913;47.520;19.186;2023-11-21T11:39:50;99382.66;;;9.13;96.46
49102;BME280;34913;47.520;19.186;2023-11-21T11:42:17;99381.28;;;9.19;95.91
49102;BME280;34913;47.520;19.186;2023-11-21T11:47:24;99384.91;;;9.18;95.68
49102;BME280;34913;47.520;19.186;2023-11-21T11:52:36;99377.88;;;9.07;95.43
49102;BME280;34913;47.520;19.186;2023-11-21T11:55:02;99375.13;;;9.09;95.63
49102;BME280;34913;47.520;19.186;2023-11-21T11:57:34;99373.72;;;9.14;95.55
49102;BME280;34913;47.520;19.186;2023-11-21T12:00:19;99371.13;;;9.24;94.70
49102;BME280;34913;47.520;19.186;2023-11-21T12:02:51;99355.13;;;9.26;94.02
49102;BME280;34913;47.520;19.186;2023-11-21T12:05:18;99360.72;;;9.32;92.19
49102;BME280;34913;47.520;19.186;2023-11-21T12:07:50;99364.31;;;9.31;92.51
49102;BME280;34913;47.520;19.186;2023-11-21T12:10:20;99364.63;;;9.38;92.82
49102;BME280;34913;47.520;19.186;2023-11-21T12:15:19;99363.94;;;9.36;92.39
49102;BME280;34913;47.520;19.186;2023-11-21T12:17:46;99354.69;;;9.30;92.53
49102;BME280;34913;47.520;19.186;2023-11-21T12:20:14;99357.19;;;9.22;93.23
49102;BME280;34913;47.520;19.186;2023-11-21T12:22:44;99358.38;;;9.08;93.02
49102;BME280;34913;47.520;19.186;2023-11-21T12:25:12;99359.09;;;9.10;95.60
49102;BME280;34913;47.520;19.186;2023-11-21T12:27:44;99354.22;;;9.15;94.57
49102;BME280;34913;47.520;19.186;2023-11-21T12:30:11;99350.34;;;9.19;94.47
49102;BME280;34913;47.520;19.186;2023-11-21T12:32:41;99355.50;;;9.21;96.39
49102;BME280;34913;47.520;19.186;2023-11-21T12:35:08;99349.00;;;9.25;95.50
49102;BME280;34913;47.520;19.186;2023-11-21T12:37:36;99347.84;;;9.18;94.53
49102;BME280;34913;47.520;19.186;2023-11-21T12:40:04;99345.44;;;9.15;94.31
49102;BME280;34913;47.520;19.186;2023-11-21T12:42:29;99339.06;;;9.17;94.11
49102;BME280;34913;47.520;19.186;2023-11-21T12:47:40;99344.94;;;9.31;93.47
49102;BME280;34913;47.520;19.186;2023-11-21T12:50:06;99345.66;;;9.33;92.98
49102;BME280;34913;47.520;19.186;2023-11-21T12:52:32;99343.28;;;9.30;92.32
49102;BME280;34913;47.520;19.186;2023-11-21T12:54:58;99343.84;;;9.33;92.40
49102;BME280;34913;47.520;19.186;2023-11-21T12:57:27;99349.72;;;9.37;91.37
49102;BME280;34913;47.520;19.186;2023-11-21T12:59:57;99344.56;;;9.35;92.86
49102;BME280;34913;47.520;19.186;2023-11-21T13:02:26;99346.53;;;9.43;92.98
49102;BME280;34913;47.520;19.186;2023-11-21T13:04:52;99341.22;;;9.43;92.76